sensor_id;sensor_type;location;lat;lon;timestamp;temperature;humidity
30150;DHT22;16962;48.646;9.026;2023-02-01T00:00:42;1.80;99.90
30150;DHT22;16962;48.646;9.026;2023-02-01T00:03:29;1.80;99.90
30150;DHT22;16962;48.646;9.026;2023-02-01T00:06:19;1.80;99.90
30150;DHT22;16962;48.646;9.026;2023-02-01T00:09:08;1.80;99.90
30150;DHT22;16962;48.646;9.026;2023-02-01T00:11:58;1.80;99.90
30150;DHT22;16962;48.646;9.026;2023-02-01T00:14:48;1.80;99.90
30150;DHT22;16962;48.646;9.026;2023-02-01T00:17:35;1.80;99.90
30150;DHT22;16962;48.646;9.026;2023-02-01T00:20:23;1.80;99.90
30150;DHT22;16962;48.646;9.026;2023-02-01T00:23:10;1.80;99.90
30150;DHT22;16962;48.646;9.026;2023-02-01T00:26:03;1.80;99.90
30150;DHT22;16962;48.646;9.026;2023-02-01T00:28:51;1.80;99.90
30150;DHT22;16962;48.646;9.026;2023-02-01T00:31:40;1.80;99.90
30150;DHT22;16962;48.646;9.026;2023-02-01T00:34:29;1.80;99.90
30150;DHT22;16962;48.646;9.026;2023-02-01T00:37:18;1.80;99.90
30150;DHT22;16962;48.646;9.026;2023-02-01T00:40:06;1.80;99.90
30150;DHT22;16962;48.646;9.026;2023-02-01T00:43:01;1.80;99.90
30150;DHT22;16962;48.646;9.026;2023-02-01T00:45:49;1.90;99.90
30150;DHT22;16962;48.646;9.026;2023-02-01T00:48:38;1.80;99.90
30150;DHT22;16962;48.646;9.026;2023-02-01T00:51:28;1.80;99.90
30150;DHT22;16962;48.646;9.026;2023-02-01T00:54:17;1.80;99.90
30150;DHT22;16962;48.646;9.026;2023-02-01T00:57:04;1.80;99.90
30150;DHT22;16962;48.646;9.026;2023-02-01T00:59:52;1.90;99.90
30150;DHT22;16962;48.646;9.026;2023-02-01T01:03:00;1.80;99.90
30150;DHT22;16962;48.646;9.026;2023-02-01T01:05:48;1.80;99.90
30150;DHT22;16962;48.646;9.026;2023-02-01T01:08:36;1.90;99.90
30150;DHT22;16962;48.646;9.026;2023-02-01T01:11:28;1.80;99.90
30150;DHT22;16962;48.646;9.026;2023-02-01T01:14:18;1.90;99.90
30150;DHT22;16962;48.646;9.026;2023-02-01T01:17:05;1.90;99.90
30150;DHT22;16962;48.646;9.026;2023-02-01T01:19:54;1.90;99.90
30150;DHT22;16962;48.646;9.026;2023-02-01T01:22:45;1.90;99.90
30150;DHT22;16962;48.646;9.026;2023-02-01T01:25:39;1.90;99.90
30150;DHT22;16962;48.646;9.026;2023-02-01T01:28:27;1.90;99.90
30150;DHT22;16962;48.646;9.026;2023-02-01T01:31:16;2.00;99.90
30150;DHT22;16962;48.646;9.026;2023-02-01T01:34:04;2.00;99.90
30150;DHT22;16962;48.646;9.026;2023-02-01T01:36:53;1.90;99.90
30150;DHT22;16962;48.646;9.026;2023-02-01T01:39:42;2.00;99.90
30150;DHT22;16962;48.646;9.026;2023-02-01T01:42:29;1.90;99.90
30150;DHT22;16962;48.646;9.026;2023-02-01T01:48:24;1.90;99.90
30150;DHT22;16962;48.646;9.026;2023-02-01T01:51:14;1.90;99.90
30150;DHT22;16962;48.646;9.026;2023-02-01T01:54:11;2.00;99.90
30150;DHT22;16962;48.646;9.026;2023-02-01T01:57:09;2.00;99.90
30150;DHT22;16962;48.646;9.026;2023-02-01T02:00:08;2.00;99.90
30150;DHT22;16962;48.646;9.026;2023-02-01T02:03:05;2.00;99.90
30150;DHT22;16962;48.646;9.026;2023-02-01T02:05:55;2.00;99.90
30150;DHT22;16962;48.646;9.026;2023-02-01T02:08:45;2.00;99.90
30150;DHT22;16962;48.646;9.026;2023-02-01T02:11:33;2.00;99.90
30150;DHT22;16962;48.646;9.026;2023-02-01T02:14:25;2.00;99.90
30150;DHT22;16962;48.646;9.026;2023-02-01T02:27:09;2.20;99.90
30150;DHT22;16962;48.646;9.026;2023-02-01T02:30:17;2.20;99.90
30150;DHT22;16962;48.646;9.026;2023-02-01T02:43:05;2.20;99.90
30150;DHT22;16962;48.646;9.026;2023-02-01T02:46:37;2.20;99.90
30150;DHT22;16962;48.646;9.026;2023-02-01T02:50:11;2.20;99.90
30150;DHT22;16962;48.646;9.026;2023-02-01T02:53:29;2.20;99.90
30150;DHT22;16962;48.646;9.026;2023-02-01T02:56:38;2.20;99.90
30150;DHT22;16962;48.646;9.026;2023-02-01T02:59:48;2.20;99.90
30150;DHT22;16962;48.646;9.026;2023-02-01T03:02:54;2.20;99.90
30150;DHT22;16962;48.646;9.026;2023-02-01T03:06:07;2.20;99.90
30150;DHT22;16962;48.646;9.026;2023-02-01T03:09:04;2.30;99.90
30150;DHT22;16962;48.646;9.026;2023-02-01T03:11:57;2.20;99.90
30150;DHT22;16962;48.646;9.026;2023-02-01T03:15:11;2.20;99.90
30150;DHT22;16962;48.646;9.026;2023-02-01T03:18:01;2.20;99.90
30150;DHT22;16962;48.646;9.026;2023-02-01T03:20:58;2.20;99.90
30150;DHT22;16962;48.646;9.026;2023-02-01T03:23:47;2.20;99.90
30150;DHT22;16962;48.646;9.026;2023-02-01T03:26:40;2.20;99.90
30150;DHT22;16962;48.646;9.026;2023-02-01T03:29:33;2.20;99.90
30150;DHT22;16962;48.646;9.026;2023-02-01T03:32:23;2.20;99.90
30150;DHT22;16962;48.646;9.026;2023-02-01T03:35:10;2.20;99.90
30150;DHT22;16962;48.646;9.026;2023-02-01T03:38:11;2.20;99.90
30150;DHT22;16962;48.646;9.026;2023-02-01T03:44:20;2.20;99.90
30150;DHT22;16962;48.646;9.026;2023-02-01T03:47:26;2.20;99.90
30150;DHT22;16962;48.646;9.026;2023-02-01T03:50:23;2.20;99.90
30150;DHT22;16962;48.646;9.026;2023-02-01T03:53:20;2.30;99.90
30150;DHT22;16962;48.646;9.026;2023-02-01T03:56:10;2.20;99.90
30150;DHT22;16962;48.646;9.026;2023-02-01T03:59:01;2.30;99.90
30150;DHT22;16962;48.646;9.026;2023-02-01T04:01:48;2.30;99.90
30150;DHT22;16962;48.646;9.026;2023-02-01T04:04:36;2.30;99.90
30150;DHT22;16962;48.646;9.026;2023-02-01T04:07:24;2.30;99.90
30150;DHT22;16962;48.646;9.026;2023-02-01T04:10:13;2.30;99.90
30150;DHT22;16962;48.646;9.026;2023-02-01T04:13:00;2.30;99.90
30150;DHT22;16962;48.646;9.026;2023-02-01T04:15:48;2.30;99.90
30150;DHT22;16962;48.646;9.026;2023-02-01T04:18:37;2.30;99.90
30150;DHT22;16962;48.646;9.026;2023-02-01T04:21:25;2.40;99.90
30150;DHT22;16962;48.646;9.026;2023-02-01T04:24:12;2.30;99.90
30150;DHT22;16962;48.646;9.026;2023-02-01T04:26:59;2.40;99.90
30150;DHT22;16962;48.646;9.026;2023-02-01T04:29:49;2.40;99.90
30150;DHT22;16962;48.646;9.026;2023-02-01T04:32:39;2.40;99.90
30150;DHT22;16962;48.646;9.026;2023-02-01T04:35:29;2.40;99.90
30150;DHT22;16962;48.646;9.026;2023-02-01T04:38:16;2.40;99.90
30150;DHT22;16962;48.646;9.026;2023-02-01T04:41:06;2.50;99.90
30150;DHT22;16962;48.646;9.026;2023-02-01T04:43:53;2.50;99.90
30150;DHT22;16962;48.646;9.026;2023-02-01T04:46:41;2.50;99.90
30150;DHT22;16962;48.646;9.026;2023-02-01T04:49:31;2.40;99.90
30150;DHT22;16962;48.646;9.026;2023-02-01T04:52:19;2.40;99.90
30150;DHT22;16962;48.646;9.026;2023-02-01T04:55:06;2.40;99.90
30150;DHT22;16962;48.646;9.026;2023-02-01T04:57:56;2.40;99.90
30150;DHT22;16962;48.646;9.026;2023-02-01T05:00:43;2.40;99.90
30150;DHT22;16962;48.646;9.026;2023-02-01T05:03:56;2.40;99.90
30150;DHT22;16962;48.646;9.026;2023-02-01T05:06:43;2.50;99.90
30150;DHT22;16962;48.646;9.026;2023-02-01T05:12:44;2.50;99.90
30150;DHT22;16962;48.646;9.026;2023-02-01T05:15:50;2.40;99.90
30150;DHT22;16962;48.646;9.026;2023-02-01T05:18:39;2.50;99.90
30150;DHT22;16962;48.646;9.026;2023-02-01T05:21:31;2.50;99.90
30150;DHT22;16962;48.646;9.026;2023-02-01T05:24:19;2.50;99.90
30150;DHT22;16962;48.646;9.026;2023-02-01T05:27:07;2.50;99.90
30150;DHT22;16962;48.646;9.026;2023-02-01T05:29:57;2.50;99.90
30150;DHT22;16962;48.646;9.026;2023-02-01T05:32:48;2.60;99.90
30150;DHT22;16962;48.646;9.026;2023-02-01T05:35:36;2.60;99.90
30150;DHT22;16962;48.646;9.026;2023-02-01T05:38:23;2.60;99.90
30150;DHT22;16962;48.646;9.026;2023-02-01T05:41:20;2.60;99.90
30150;DHT22;16962;48.646;9.026;2023-02-01T05:44:07;2.50;99.90
30150;DHT22;16962;48.646;9.026;2023-02-01T05:46:55;2.50;99.90
30150;DHT22;16962;48.646;9.026;2023-02-01T05:49:43;2.60;99.90
30150;DHT22;16962;48.646;9.026;2023-02-01T05:52:30;2.60;99.90
30150;DHT22;16962;48.646;9.026;2023-02-01T05:55:26;2.50;99.90
30150;DHT22;16962;48.646;9.026;2023-02-01T05:58:14;2.50;99.90
30150;DHT22;16962;48.646;9.026;2023-02-01T06:01:03;2.40;99.90
30150;DHT22;16962;48.646;9.026;2023-02-01T06:03:50;2.40;99.90
30150;DHT22;16962;48.646;9.026;2023-02-01T06:06:38;2.40;99.90
30150;DHT22;16962;48.646;9.026;2023-02-01T06:09:27;2.50;99.90
30150;DHT22;16962;48.646;9.026;2023-02-01T06:12:15;2.50;99.90
30150;DHT22;16962;48.646;9.026;2023-02-01T06:15:02;2.40;99.90
30150;DHT22;16962;48.646;9.026;2023-02-01T06:17:51;2.40;99.90
30150;DHT22;16962;48.646;9.026;2023-02-01T06:20:41;2.40;99.90
30150;DHT22;16962;48.646;9.026;2023-02-01T06:23:31;2.40;99.90
30150;DHT22;16962;48.646;9.026;2023-02-01T06:26:23;2.40;99.90
30150;DHT22;16962;48.646;9.026;2023-02-01T06:29:11;2.40;99.90
30150;DHT22;16962;48.646;9.026;2023-02-01T06:31:58;2.40;99.90
30150;DHT22;16962;48.646;9.026;2023-02-01T06:34:46;2.40;99.90
30150;DHT22;16962;48.646;9.026;2023-02-01T06:37:33;2.50;99.90
30150;DHT22;16962;48.646;9.026;2023-02-01T06:40:22;2.50;99.90
30150;DHT22;16962;48.646;9.026;2023-02-01T06:43:35;2.50;99.90
30150;DHT22;16962;48.646;9.026;2023-02-01T06:46:57;2.50;99.90
30150;DHT22;16962;48.646;9.026;2023-02-01T06:50:03;2.50;99.90
30150;DHT22;16962;48.646;9.026;2023-02-01T06:52:55;2.50;99.90
30150;DHT22;16962;48.646;9.026;2023-02-01T06:55:58;2.40;99.90
30150;DHT22;16962;48.646;9.026;2023-02-01T06:58:59;2.40;99.90
30150;DHT22;16962;48.646;9.026;2023-02-01T07:02:24;2.40;99.90
30150;DHT22;16962;48.646;9.026;2023-02-01T07:05:21;2.40;99.90
30150;DHT22;16962;48.646;9.026;2023-02-01T07:08:35;2.40;99.90
30150;DHT22;16962;48.646;9.026;2023-02-01T07:11:32;2.50;99.90
30150;DHT22;16962;48.646;9.026;2023-02-01T07:23:02;2.50;99.90
30150;DHT22;16962;48.646;9.026;2023-02-01T07:30:47;2.60;99.90
30150;DHT22;16962;48.646;9.026;2023-02-01T07:33:44;2.60;99.90
30150;DHT22;16962;48.646;9.026;2023-02-01T07:37:12;2.70;99.90
30150;DHT22;16962;48.646;9.026;2023-02-01T07:40:06;2.70;99.90
30150;DHT22;16962;48.646;9.026;2023-02-01T07:43:34;2.70;99.90
30150;DHT22;16962;48.646;9.026;2023-02-01T07:55:02;2.80;73.90
30150;DHT22;16962;48.646;9.026;2023-02-01T07:58:13;2.90;1.00
30150;DHT22;16962;48.646;9.026;2023-02-01T08:01:53;2.90;1.00
30150;DHT22;16962;48.646;9.026;2023-02-01T08:05:17;2.90;99.90
30150;DHT22;16962;48.646;9.026;2023-02-01T08:09:05;3.00;99.90
30150;DHT22;16962;48.646;9.026;2023-02-01T09:15:00;3.30;99.90
30150;DHT22;16962;48.646;9.026;2023-02-01T09:26:56;3.30;99.90
30150;DHT22;16962;48.646;9.026;2023-02-01T10:11:24;3.80;99.90
30150;DHT22;16962;48.646;9.026;2023-02-01T10:25:19;4.40;1.00
30150;DHT22;16962;48.646;9.026;2023-02-01T10:28:25;4.70;99.90
30150;DHT22;16962;48.646;9.026;2023-02-01T10:31:49;4.60;99.90
30150;DHT22;16962;48.646;9.026;2023-02-01T10:43:34;4.70;1.00
30150;DHT22;16962;48.646;9.026;2023-02-01T11:59:57;4.60;1.00
30150;DHT22;16962;48.646;9.026;2023-02-01T13:25:13;4.30;6.00
30150;DHT22;16962;48.646;9.026;2023-02-01T13:29:06;4.30;2.10
30150;DHT22;16962;48.646;9.026;2023-02-01T13:44:46;4.10;74.40
30150;DHT22;16962;48.646;9.026;2023-02-01T13:51:58;4.10;99.90
30150;DHT22;16962;48.646;9.026;2023-02-01T14:21:50;4.30;70.40
30150;DHT22;16962;48.646;9.026;2023-02-01T14:25:32;4.30;61.60
30150;DHT22;16962;48.646;9.026;2023-02-01T14:29:34;4.30;59.10
30150;DHT22;16962;48.646;9.026;2023-02-01T15:01:47;4.30;49.40
30150;DHT22;16962;48.646;9.026;2023-02-01T15:05:26;4.30;44.00
30150;DHT22;16962;48.646;9.026;2023-02-01T15:08:46;4.30;45.50
30150;DHT22;16962;48.646;9.026;2023-02-01T15:12:00;4.30;37.00
30150;DHT22;16962;48.646;9.026;2023-02-01T15:18:27;4.40;32.30
30150;DHT22;16962;48.646;9.026;2023-02-01T15:21:23;4.40;40.50
30150;DHT22;16962;48.646;9.026;2023-02-01T15:27:50;4.40;62.60
30150;DHT22;16962;48.646;9.026;2023-02-01T15:31:04;4.30;74.60
30150;DHT22;16962;48.646;9.026;2023-02-01T15:34:02;4.20;99.90
30150;DHT22;16962;48.646;9.026;2023-02-01T15:36:53;4.10;99.90
30150;DHT22;16962;48.646;9.026;2023-02-01T15:41:20;4.00;99.90
30150;DHT22;16962;48.646;9.026;2023-02-01T15:46:50;3.90;99.90
30150;DHT22;16962;48.646;9.026;2023-02-01T15:49:42;3.90;99.90
30150;DHT22;16962;48.646;9.026;2023-02-01T15:52:36;3.90;99.90
30150;DHT22;16962;48.646;9.026;2023-02-01T15:55:40;3.90;99.90
30150;DHT22;16962;48.646;9.026;2023-02-01T15:58:30;3.90;99.90
30150;DHT22;16962;48.646;9.026;2023-02-01T16:01:18;3.90;99.90
30150;DHT22;16962;48.646;9.026;2023-02-01T16:04:23;3.90;99.90
30150;DHT22;16962;48.646;9.026;2023-02-01T16:07:30;3.90;99.90
30150;DHT22;16962;48.646;9.026;2023-02-01T16:10:25;4.00;99.90
30150;DHT22;16962;48.646;9.026;2023-02-01T16:13:14;4.00;99.90
30150;DHT22;16962;48.646;9.026;2023-02-01T16:16:07;4.00;99.90
30150;DHT22;16962;48.646;9.026;2023-02-01T16:19:04;3.90;99.90
30150;DHT22;16962;48.646;9.026;2023-02-01T16:21:52;3.90;99.90
30150;DHT22;16962;48.646;9.026;2023-02-01T16:24:42;3.90;99.90
30150;DHT22;16962;48.646;9.026;2023-02-01T16:27:32;3.90;99.90
30150;DHT22;16962;48.646;9.026;2023-02-01T16:30:19;3.90;99.90
30150;DHT22;16962;48.646;9.026;2023-02-01T16:33:17;3.90;99.90
30150;DHT22;16962;48.646;9.026;2023-02-01T16:36:08;3.90;99.90
30150;DHT22;16962;48.646;9.026;2023-02-01T16:38:57;3.80;99.90
30150;DHT22;16962;48.646;9.026;2023-02-01T16:41:47;3.80;99.90
30150;DHT22;16962;48.646;9.026;2023-02-01T16:44:41;3.80;99.90
30150;DHT22;16962;48.646;9.026;2023-02-01T16:47:28;3.80;99.90
30150;DHT22;16962;48.646;9.026;2023-02-01T16:50:24;3.80;99.90
30150;DHT22;16962;48.646;9.026;2023-02-01T16:53:17;3.80;99.90
30150;DHT22;16962;48.646;9.026;2023-02-01T16:56:18;3.80;99.90
30150;DHT22;16962;48.646;9.026;2023-02-01T16:59:08;3.70;99.90
30150;DHT22;16962;48.646;9.026;2023-02-01T17:01:56;3.70;99.90
30150;DHT22;16962;48.646;9.026;2023-02-01T17:04:44;3.70;99.90
30150;DHT22;16962;48.646;9.026;2023-02-01T17:07:36;3.80;99.90
30150;DHT22;16962;48.646;9.026;2023-02-01T17:10:26;3.70;99.90
30150;DHT22;16962;48.646;9.026;2023-02-01T17:13:21;3.70;99.90
30150;DHT22;16962;48.646;9.026;2023-02-01T17:19:14;3.70;99.90
30150;DHT22;16962;48.646;9.026;2023-02-01T17:22:05;3.70;99.90
30150;DHT22;16962;48.646;9.026;2023-02-01T17:24:58;3.70;99.90
30150;DHT22;16962;48.646;9.026;2023-02-01T17:27:46;3.70;99.90
30150;DHT22;16962;48.646;9.026;2023-02-01T17:30:34;3.70;99.90
30150;DHT22;16962;48.646;9.026;2023-02-01T17:33:26;3.70;99.90
30150;DHT22;16962;48.646;9.026;2023-02-01T17:36:24;3.70;99.90
30150;DHT22;16962;48.646;9.026;2023-02-01T17:39:14;3.70;99.90
30150;DHT22;16962;48.646;9.026;2023-02-01T17:42:23;3.70;99.90
30150;DHT22;16962;48.646;9.026;2023-02-01T17:45:15;3.70;99.90
30150;DHT22;16962;48.646;9.026;2023-02-01T17:48:06;3.70;99.90
30150;DHT22;16962;48.646;9.026;2023-02-01T17:50:54;3.70;99.90
30150;DHT22;16962;48.646;9.026;2023-02-01T17:53:45;3.70;99.90
30150;DHT22;16962;48.646;9.026;2023-02-01T17:56:33;3.70;99.90
30150;DHT22;16962;48.646;9.026;2023-02-01T17:59:20;3.80;99.90
30150;DHT22;16962;48.646;9.026;2023-02-01T18:02:21;3.60;99.90
30150;DHT22;16962;48.646;9.026;2023-02-01T18:05:44;3.50;99.90
30150;DHT22;16962;48.646;9.026;2023-02-01T18:08:39;3.50;99.90
30150;DHT22;16962;48.646;9.026;2023-02-01T18:11:26;3.50;99.90
30150;DHT22;16962;48.646;9.026;2023-02-01T18:14:19;3.60;99.90
30150;DHT22;16962;48.646;9.026;2023-02-01T18:17:07;3.60;99.90
30150;DHT22;16962;48.646;9.026;2023-02-01T18:19:55;3.60;99.90
30150;DHT22;16962;48.646;9.026;2023-02-01T18:22:46;3.60;99.90
30150;DHT22;16962;48.646;9.026;2023-02-01T18:25:36;3.60;99.90
30150;DHT22;16962;48.646;9.026;2023-02-01T18:28:27;3.70;99.90
30150;DHT22;16962;48.646;9.026;2023-02-01T18:31:23;3.70;99.90
30150;DHT22;16962;48.646;9.026;2023-02-01T18:34:14;3.80;99.90
30150;DHT22;16962;48.646;9.026;2023-02-01T18:37:07;3.80;99.90
30150;DHT22;16962;48.646;9.026;2023-02-01T18:39:55;3.70;99.90
30150;DHT22;16962;48.646;9.026;2023-02-01T18:42:45;3.60;99.90
30150;DHT22;16962;48.646;9.026;2023-02-01T18:45:37;3.60;99.90
30150;DHT22;16962;48.646;9.026;2023-02-01T18:48:27;3.60;99.90
30150;DHT22;16962;48.646;9.026;2023-02-01T18:51:17;3.60;99.90
30150;DHT22;16962;48.646;9.026;2023-02-01T18:54:07;3.60;99.90
30150;DHT22;16962;48.646;9.026;2023-02-01T18:56:56;3.70;99.90
30150;DHT22;16962;48.646;9.026;2023-02-01T18:59:45;3.80;99.90
30150;DHT22;16962;48.646;9.026;2023-02-01T19:02:35;3.80;99.90
30150;DHT22;16962;48.646;9.026;2023-02-01T19:05:23;3.80;99.90
30150;DHT22;16962;48.646;9.026;2023-02-01T19:08:14;3.90;99.90
30150;DHT22;16962;48.646;9.026;2023-02-01T19:11:05;3.90;99.90
30150;DHT22;16962;48.646;9.026;2023-02-01T19:13:55;3.90;99.90
30150;DHT22;16962;48.646;9.026;2023-02-01T19:16:43;4.00;99.90
30150;DHT22;16962;48.646;9.026;2023-02-01T19:19:30;4.00;99.90
30150;DHT22;16962;48.646;9.026;2023-02-01T19:22:18;4.00;99.90
30150;DHT22;16962;48.646;9.026;2023-02-01T19:25:08;4.00;99.90
30150;DHT22;16962;48.646;9.026;2023-02-01T19:28:01;4.00;99.90
30150;DHT22;16962;48.646;9.026;2023-02-01T19:30:48;4.00;96.30
30150;DHT22;16962;48.646;9.026;2023-02-01T19:33:36;4.10;90.90
30150;DHT22;16962;48.646;9.026;2023-02-01T19:36:26;4.10;79.10
30150;DHT22;16962;48.646;9.026;2023-02-01T19:39:14;4.10;68.00
30150;DHT22;16962;48.646;9.026;2023-02-01T19:42:02;4.10;61.00
30150;DHT22;16962;48.646;9.026;2023-02-01T19:44:50;4.10;57.10
30150;DHT22;16962;48.646;9.026;2023-02-01T19:47:41;4.10;53.80
30150;DHT22;16962;48.646;9.026;2023-02-01T19:50:28;4.10;53.00
30150;DHT22;16962;48.646;9.026;2023-02-01T19:53:16;4.10;52.50
30150;DHT22;16962;48.646;9.026;2023-02-01T19:56:06;4.00;54.30
30150;DHT22;16962;48.646;9.026;2023-02-01T19:58:54;4.00;57.00
30150;DHT22;16962;48.646;9.026;2023-02-01T20:01:45;4.00;67.20
30150;DHT22;16962;48.646;9.026;2023-02-01T20:04:34;4.00;72.50
30150;DHT22;16962;48.646;9.026;2023-02-01T20:07:22;4.00;71.00
30150;DHT22;16962;48.646;9.026;2023-02-01T20:10:10;4.00;81.30
30150;DHT22;16962;48.646;9.026;2023-02-01T20:12:58;4.00;91.50
30150;DHT22;16962;48.646;9.026;2023-02-01T20:15:46;3.90;99.20
30150;DHT22;16962;48.646;9.026;2023-02-01T20:18:34;3.90;99.90
30150;DHT22;16962;48.646;9.026;2023-02-01T20:21:26;4.00;99.90
30150;DHT22;16962;48.646;9.026;2023-02-01T20:24:16;4.00;99.90
30150;DHT22;16962;48.646;9.026;2023-02-01T20:27:07;4.00;99.90
30150;DHT22;16962;48.646;9.026;2023-02-01T20:29:56;4.00;99.90
30150;DHT22;16962;48.646;9.026;2023-02-01T20:32:50;4.00;99.90
30150;DHT22;16962;48.646;9.026;2023-02-01T20:35:43;4.00;99.90
30150;DHT22;16962;48.646;9.026;2023-02-01T20:38:32;4.00;99.90
30150;DHT22;16962;48.646;9.026;2023-02-01T20:41:20;4.00;99.90
30150;DHT22;16962;48.646;9.026;2023-02-01T20:44:11;4.00;99.90
30150;DHT22;16962;48.646;9.026;2023-02-01T20:47:00;4.00;99.90
30150;DHT22;16962;48.646;9.026;2023-02-01T20:49:50;4.00;99.90
30150;DHT22;16962;48.646;9.026;2023-02-01T20:52:38;4.00;99.90
30150;DHT22;16962;48.646;9.026;2023-02-01T20:55:28;4.00;99.90
30150;DHT22;16962;48.646;9.026;2023-02-01T20:58:23;3.90;99.90
30150;DHT22;16962;48.646;9.026;2023-02-01T21:01:14;4.00;99.90
30150;DHT22;16962;48.646;9.026;2023-02-01T21:04:04;4.00;99.90
30150;DHT22;16962;48.646;9.026;2023-02-01T21:06:53;3.90;99.90
30150;DHT22;16962;48.646;9.026;2023-02-01T21:09:40;3.90;99.90
30150;DHT22;16962;48.646;9.026;2023-02-01T21:12:29;4.00;99.90
30150;DHT22;16962;48.646;9.026;2023-02-01T21:15:16;4.00;99.90
30150;DHT22;16962;48.646;9.026;2023-02-01T21:18:05;4.00;99.90
30150;DHT22;16962;48.646;9.026;2023-02-01T21:21:06;4.00;99.90
30150;DHT22;16962;48.646;9.026;2023-02-01T21:23:55;4.00;99.90
30150;DHT22;16962;48.646;9.026;2023-02-01T21:26:45;4.00;99.90
30150;DHT22;16962;48.646;9.026;2023-02-01T21:29:35;4.00;99.90
30150;DHT22;16962;48.646;9.026;2023-02-01T21:32:26;4.00;99.90
30150;DHT22;16962;48.646;9.026;2023-02-01T21:35:15;4.00;99.90
30150;DHT22;16962;48.646;9.026;2023-02-01T21:38:03;4.00;99.90
30150;DHT22;16962;48.646;9.026;2023-02-01T21:40:50;3.90;99.90
30150;DHT22;16962;48.646;9.026;2023-02-01T21:43:57;3.90;99.90
30150;DHT22;16962;48.646;9.026;2023-02-01T21:46:45;3.80;99.90
30150;DHT22;16962;48.646;9.026;2023-02-01T21:49:33;3.70;99.90
30150;DHT22;16962;48.646;9.026;2023-02-01T21:52:20;3.70;99.90
30150;DHT22;16962;48.646;9.026;2023-02-01T21:55:10;3.60;99.90
30150;DHT22;16962;48.646;9.026;2023-02-01T21:57:59;3.50;99.90
30150;DHT22;16962;48.646;9.026;2023-02-01T22:00:47;3.50;99.90
30150;DHT22;16962;48.646;9.026;2023-02-01T22:03:34;3.50;99.90
30150;DHT22;16962;48.646;9.026;2023-02-01T22:09:21;3.40;1.00
30150;DHT22;16962;48.646;9.026;2023-02-01T22:12:13;3.40;1.00
30150;DHT22;16962;48.646;9.026;2023-02-01T22:15:01;3.40;1.00
30150;DHT22;16962;48.646;9.026;2023-02-01T22:17:49;3.40;1.00
30150;DHT22;16962;48.646;9.026;2023-02-01T22:20:36;3.40;1.00
30150;DHT22;16962;48.646;9.026;2023-02-01T22:23:23;3.40;1.00
30150;DHT22;16962;48.646;9.026;2023-02-01T22:26:14;3.40;1.00
30150;DHT22;16962;48.646;9.026;2023-02-01T22:29:01;3.40;1.00
30150;DHT22;16962;48.646;9.026;2023-02-01T22:31:49;3.30;42.40
30150;DHT22;16962;48.646;9.026;2023-02-01T22:34:46;3.30;99.90
30150;DHT22;16962;48.646;9.026;2023-02-01T22:37:33;3.30;99.90
30150;DHT22;16962;48.646;9.026;2023-02-01T22:40:21;3.20;99.90
30150;DHT22;16962;48.646;9.026;2023-02-01T22:43:11;3.30;99.90
30150;DHT22;16962;48.646;9.026;2023-02-01T22:46:05;3.30;99.90
30150;DHT22;16962;48.646;9.026;2023-02-01T22:48:59;3.20;99.90
30150;DHT22;16962;48.646;9.026;2023-02-01T22:51:46;3.20;99.90
30150;DHT22;16962;48.646;9.026;2023-02-01T22:55:00;3.20;99.90
30150;DHT22;16962;48.646;9.026;2023-02-01T22:57:47;3.20;1.00
30150;DHT22;16962;48.646;9.026;2023-02-01T23:00:34;3.20;1.00
30150;DHT22;16962;48.646;9.026;2023-02-01T23:03:22;3.30;1.00
30150;DHT22;16962;48.646;9.026;2023-02-01T23:06:20;3.30;1.00
30150;DHT22;16962;48.646;9.026;2023-02-01T23:09:20;3.40;1.00
30150;DHT22;16962;48.646;9.026;2023-02-01T23:12:08;3.40;99.90
30150;DHT22;16962;48.646;9.026;2023-02-01T23:14:56;3.40;99.90
30150;DHT22;16962;48.646;9.026;2023-02-01T23:17:52;3.50;99.90
30150;DHT22;16962;48.646;9.026;2023-02-01T23:20:42;3.40;99.90
30150;DHT22;16962;48.646;9.026;2023-02-01T23:23:29;3.40;99.90
30150;DHT22;16962;48.646;9.026;2023-02-01T23:26:17;3.40;99.90
30150;DHT22;16962;48.646;9.026;2023-02-01T23:29:04;3.40;99.90
30150;DHT22;16962;48.646;9.026;2023-02-01T23:31:52;3.40;99.90
30150;DHT22;16962;48.646;9.026;2023-02-01T23:34:39;3.30;99.90
30150;DHT22;16962;48.646;9.026;2023-02-01T23:37:27;3.30;1.00
30150;DHT22;16962;48.646;9.026;2023-02-01T23:40:17;3.30;1.00
30150;DHT22;16962;48.646;9.026;2023-02-01T23:43:07;3.30;1.00
30150;DHT22;16962;48.646;9.026;2023-02-01T23:46:14;3.30;1.00
30150;DHT22;16962;48.646;9.026;2023-02-01T23:49:06;3.20;1.00
30150;DHT22;16962;48.646;9.026;2023-02-01T23:51:54;3.20;64.80
30150;DHT22;16962;48.646;9.026;2023-02-01T23:54:41;3.20;99.90
30150;DHT22;16962;48.646;9.026;2023-02-01T23:57:28;3.20;99.90
